Archival Weather

Chicago O'Hare International

Chicago, Illinois (KORD)

Report from: Wednesday, July 19, 2023 4:51 PM CDT
Current time: Thursday, July 18, 2024 8:56 PM CDT

Current weather – Weather history – Daily summaries
Weather forecast

Temperature29.4°C (84.9°F)
Heat index28.6°C (83.5°F)
Dew point11.7°C (53.1°F)
Winds 4 kts (2.1 m/s, 4.6 mph) Southwest (220°)
Visibility10 mi. (16.1 km)
Clouds Few clouds 11,000 ft. (3,353 m)
Ceiling: Broken clouds 25,000 ft. (7,620 m)
Altimeter30.00 in.Hg (1016 mB)
Relative humidity34 %
Density altitude1,778 ft. (542 m)
Sea-level pressure101.5 kPa (1015 mB, 29.98 in.Hg)
Remarks Automated weather observing station with precipitation discriminator
Flight conditions Visual Meteorological Conditions
Raw dataKORD 192151Z 22004KT 10SM FEW110 BKN250 29/12 A3000 RMK AO2 SLP153 T02940117
An error has occurred. This application may no longer respond until reloaded. Reload 🗙